createdAt,value
2016-03-10T00:00:11.356Z,2.24
2016-03-10T00:01:11.329Z,2.29
2016-03-10T00:02:11.284Z,2.25
2016-03-10T00:03:11.272Z,2.29
2016-03-10T00:04:11.227Z,2.24
2016-03-10T00:05:11.199Z,2.25
2016-03-10T00:06:11.161Z,2.25
2016-03-10T00:07:11.132Z,2.18
2016-03-10T00:08:11.103Z,2.14
2016-03-10T00:09:11.075Z,2.11
2016-03-10T00:10:11.047Z,2.2
2016-03-10T00:11:11.002Z,2.14
2016-03-10T00:12:10.973Z,2.13
2016-03-10T00:13:10.944Z,2.1
2016-03-10T00:14:10.916Z,2.1
2016-03-10T00:15:10.888Z,2.04
2016-03-10T00:16:10.844Z,2.1
2016-03-10T00:17:10.815Z,1.99
2016-03-10T00:18:10.787Z,2.1
2016-03-10T00:19:10.758Z,2.06
2016-03-10T00:20:10.730Z,2.02
2016-03-10T00:21:10.701Z,1.91
2016-03-10T00:22:10.688Z,2
2016-03-10T00:23:10.627Z,1.91
2016-03-10T00:24:10.600Z,1.92
2016-03-10T00:25:10.571Z,1.91
2016-03-10T00:26:10.543Z,1.89
2016-03-10T00:27:10.513Z,1.84
2016-03-10T00:28:10.485Z,1.91
2016-03-10T00:29:10.441Z,1.85
2016-03-10T00:30:10.443Z,1.88
2016-03-10T00:31:10.385Z,1.92
2016-03-10T00:32:10.360Z,1.91
2016-03-10T00:33:10.321Z,1.84
2016-03-10T00:34:10.292Z,1.87
2016-03-10T00:35:10.248Z,1.88
2016-03-10T00:36:10.220Z,1.77
2016-03-10T00:37:10.207Z,1.74
2016-03-10T00:38:10.154Z,1.77
2016-03-10T00:39:10.125Z,1.84
2016-03-10T00:40:10.096Z,1.8
2016-03-10T00:41:10.051Z,1.8
2016-03-10T00:42:10.024Z,1.8
2016-03-10T00:43:09.995Z,1.74
2016-03-10T00:44:09.967Z,1.73
2016-03-10T00:45:09.938Z,1.71
2016-03-10T00:46:09.895Z,1.62
2016-03-10T00:47:09.865Z,1.74
2016-03-10T00:48:09.837Z,1.67
2016-03-10T00:49:09.808Z,1.68
2016-03-10T00:50:09.780Z,1.63
2016-03-10T00:51:09.736Z,1.6
2016-03-10T00:52:09.707Z,1.6
2016-03-10T00:53:09.679Z,1.59
2016-03-10T00:54:09.650Z,1.66
2016-03-10T00:55:09.636Z,1.67
2016-03-10T00:56:09.577Z,1.63
2016-03-10T00:57:09.549Z,1.68
2016-03-10T00:58:09.519Z,1.67
2016-03-10T00:59:09.492Z,1.56
2016-03-10T01:00:09.463Z,1.55
2016-03-10T01:01:09.419Z,1.53
2016-03-10T01:02:09.390Z,1.55
2016-03-10T01:03:09.361Z,1.59
2016-03-10T01:04:09.317Z,1.55
2016-03-10T01:05:09.305Z,1.49
2016-03-10T01:06:09.291Z,1.5
2016-03-10T01:07:09.232Z,1.49
2016-03-10T01:08:09.203Z,1.6
2016-03-10T01:09:09.159Z,1.58
2016-03-10T01:10:09.130Z,1.59
2016-03-10T01:11:09.102Z,1.58
2016-03-10T01:12:09.073Z,1.56
2016-03-10T01:13:09.045Z,1.56
2016-03-10T01:14:09.001Z,1.56
2016-03-10T01:15:08.972Z,1.52
2016-03-10T01:16:08.943Z,1.5
2016-03-10T01:17:08.914Z,1.52
2016-03-10T01:18:08.870Z,1.52
2016-03-10T01:19:08.842Z,1.38
2016-03-10T01:20:08.814Z,1.5
2016-03-10T01:21:08.831Z,1.58
2016-03-10T01:22:08.756Z,1.45
2016-03-10T01:23:08.727Z,1.44
2016-03-10T01:24:08.684Z,1.44
2016-03-10T01:25:08.655Z,1.48
2016-03-10T01:26:08.627Z,1.41
2016-03-10T01:27:08.583Z,1.48
2016-03-10T01:28:08.570Z,1.49
2016-03-10T01:29:08.556Z,1.38
2016-03-10T01:30:08.497Z,1.38
2016-03-10T01:31:08.468Z,1.4
2016-03-10T01:32:08.424Z,1.45
2016-03-10T01:33:08.396Z,1.34
2016-03-10T01:34:08.383Z,1.35
2016-03-10T01:35:08.338Z,1.32
2016-03-10T01:36:08.309Z,1.37
2016-03-10T01:37:08.265Z,1.35
2016-03-10T01:38:08.237Z,1.35
2016-03-10T01:39:08.240Z,1.45
2016-03-10T01:40:08.007Z,1.34
2016-03-10T01:41:08.152Z,1.34
2016-03-10T01:42:08.107Z,1.45
2016-03-10T01:43:08.079Z,1.32
2016-03-10T01:44:08.050Z,1.37
2016-03-10T01:45:08.006Z,1.26
2016-03-10T01:46:07.992Z,1.31
2016-03-10T01:47:07.949Z,1.34
2016-03-10T01:48:07.920Z,1.32
2016-03-10T01:49:07.892Z,1.24
2016-03-10T01:50:07.847Z,1.32
2016-03-10T01:51:07.834Z,1.32
2016-03-10T01:52:07.790Z,1.3
2016-03-10T01:53:07.762Z,1.35
2016-03-10T01:54:07.733Z,1.3
2016-03-10T01:55:07.689Z,1.26
2016-03-10T01:56:07.661Z,1.2
2016-03-10T01:57:07.631Z,1.34
2016-03-10T01:58:07.588Z,1.34
2016-03-10T01:59:07.574Z,1.26
2016-03-10T02:00:07.530Z,1.28
2016-03-10T02:01:07.502Z,1.28
2016-03-10T02:02:07.473Z,1.26
2016-03-10T02:03:07.429Z,1.26
2016-03-10T02:04:07.400Z,1.31
2016-03-10T02:05:07.371Z,1.23
2016-03-10T02:06:07.344Z,1.26
2016-03-10T02:07:07.299Z,1.26
2016-03-10T02:08:07.271Z,1.24
2016-03-10T02:09:07.243Z,1.3
2016-03-10T02:10:07.199Z,1.2
2016-03-10T02:11:07.185Z,1.26
2016-03-10T02:12:07.141Z,1.24
2016-03-10T02:13:07.112Z,1.23
2016-03-10T02:14:07.084Z,1.28
2016-03-10T02:15:07.040Z,1.19
2016-03-10T02:16:07.026Z,1.26
2016-03-10T02:17:06.982Z,1.23
2016-03-10T02:18:06.953Z,1.19
2016-03-10T02:19:06.909Z,1.16
2016-03-10T02:20:06.881Z,1.14
2016-03-10T02:21:06.853Z,1.2
2016-03-10T02:22:06.823Z,1.17
2016-03-10T02:23:06.796Z,1.19
2016-03-10T02:24:06.751Z,1.12
2016-03-10T02:25:06.723Z,1.14
2016-03-10T02:26:06.694Z,1.1
2016-03-10T02:27:06.666Z,1.1
2016-03-10T02:28:06.621Z,1.08
2016-03-10T02:29:06.593Z,1.14
2016-03-10T02:30:06.564Z,1.12
2016-03-10T02:31:06.520Z,1.13
2016-03-10T02:32:06.507Z,1.06
2016-03-10T02:33:06.463Z,1.06
2016-03-10T02:34:06.435Z,1.06
2016-03-10T02:35:06.390Z,1.05
2016-03-10T02:36:06.361Z,1.06
2016-03-10T02:37:06.349Z,1.06
2016-03-10T02:38:06.305Z,1.08
2016-03-10T02:39:06.276Z,1.04
2016-03-10T02:40:06.232Z,0.99
2016-03-10T02:41:06.203Z,0.98
2016-03-10T02:42:06.174Z,0.99
2016-03-10T02:43:06.146Z,1.05
2016-03-10T02:44:06.118Z,0.99
2016-03-10T02:45:06.073Z,1.02
2016-03-10T02:46:06.045Z,0.99
2016-03-10T02:47:06.015Z,0.99
2016-03-10T02:48:05.973Z,0.95
2016-03-10T02:49:05.943Z,0.92
2016-03-10T02:50:05.915Z,0.95
2016-03-10T02:51:05.886Z,1.05
2016-03-10T02:52:05.859Z,1.02
2016-03-10T02:53:05.814Z,0.92
2016-03-10T02:54:05.801Z,0.92
2016-03-10T02:55:05.741Z,0.88
2016-03-10T02:56:05.728Z,0.86
2016-03-10T02:57:05.684Z,0.95
2016-03-10T02:58:05.656Z,0.96
2016-03-10T02:59:05.627Z,0.96
2016-03-10T03:00:05.613Z,0.95
2016-03-10T03:01:05.553Z,0.88
2016-03-10T03:02:05.525Z,0.88
2016-03-10T03:03:05.513Z,0.86
2016-03-10T03:04:05.452Z,0.92
2016-03-10T03:05:05.424Z,0.84
2016-03-10T03:06:05.396Z,0.87
2016-03-10T03:07:05.352Z,0.95
2016-03-10T03:08:05.338Z,0.91
2016-03-10T03:09:05.294Z,0.87
2016-03-10T03:10:05.296Z,0.91
2016-03-10T03:11:05.221Z,0.76
2016-03-10T03:12:05.208Z,0.88
2016-03-10T03:13:05.211Z,0.88
2016-03-10T03:14:05.135Z,0.8
2016-03-10T03:15:05.107Z,0.87
2016-03-10T03:16:05.063Z,0.81
2016-03-10T03:17:05.051Z,0.84
2016-03-10T03:18:05.006Z,0.77
2016-03-10T03:19:04.962Z,0.84
2016-03-10T03:20:04.949Z,0.81
2016-03-10T03:21:04.905Z,0.76
2016-03-10T03:22:04.876Z,0.8
2016-03-10T03:23:04.832Z,0.76
2016-03-10T03:24:04.803Z,0.78
2016-03-10T03:25:04.775Z,0.73
2016-03-10T03:26:04.746Z,0.77
2016-03-10T03:27:04.734Z,0.73
2016-03-10T03:28:04.705Z,0.76
2016-03-10T03:29:04.644Z,0.78
2016-03-10T03:30:04.631Z,0.77
2016-03-10T03:31:04.572Z,0.8
2016-03-10T03:32:04.544Z,0.77
2016-03-10T03:33:04.514Z,0.78
2016-03-10T03:34:04.471Z,0.83
2016-03-10T03:35:04.458Z,0.74
2016-03-10T03:36:04.414Z,0.7
2016-03-10T03:37:04.385Z,0.7
2016-03-10T03:38:04.340Z,0.73
2016-03-10T03:39:04.327Z,0.73
2016-03-10T03:40:04.283Z,0.83
2016-03-10T03:41:04.255Z,0.83
2016-03-10T03:42:04.242Z,0.77
2016-03-10T03:43:04.213Z,0.78
2016-03-10T03:44:04.153Z,0.7
2016-03-10T03:45:04.125Z,0.7
2016-03-10T03:46:04.081Z,0.66
2016-03-10T03:47:04.068Z,0.7
2016-03-10T03:48:04.023Z,0.73
2016-03-10T03:49:03.996Z,0.74
2016-03-10T03:50:03.951Z,0.7
2016-03-10T03:51:03.923Z,0.7
2016-03-10T03:52:03.894Z,0.66
2016-03-10T03:53:03.865Z,0.73
2016-03-10T03:54:03.821Z,0.66
2016-03-10T03:55:03.793Z,0.62
2016-03-10T03:56:03.764Z,0.63
2016-03-10T03:57:03.720Z,0.65
2016-03-10T03:58:03.722Z,0.65
2016-03-10T03:59:03.694Z,0.66
2016-03-10T04:00:03.619Z,0.59
2016-03-10T04:01:03.606Z,0.65
2016-03-10T04:02:03.561Z,0.56
2016-03-10T04:03:03.533Z,0.62
2016-03-10T04:04:03.505Z,0.58
2016-03-10T04:05:03.461Z,0.56
2016-03-10T04:06:03.432Z,0.55
2016-03-10T04:07:03.403Z,0.55
2016-03-10T04:08:03.374Z,0.5
2016-03-10T04:09:03.346Z,0.55
2016-03-10T04:10:03.302Z,0.55
2016-03-10T04:11:03.273Z,0.58
2016-03-10T04:12:03.229Z,0.52
2016-03-10T04:13:03.231Z,0.49
2016-03-10T04:14:03.172Z,0.52
2016-03-10T04:15:03.127Z,0.59
2016-03-10T04:16:03.099Z,0.52
2016-03-10T04:17:03.086Z,0.49
2016-03-10T04:18:03.043Z,0.55
2016-03-10T04:19:03.013Z,0.58
2016-03-10T04:20:02.970Z,0.52
2016-03-10T04:21:02.941Z,0.59
2016-03-10T04:22:02.897Z,0.52
2016-03-10T04:23:02.884Z,0.52
2016-03-10T04:24:02.856Z,0.49
2016-03-10T04:25:02.812Z,0.5
2016-03-10T04:26:02.782Z,0.52
2016-03-10T04:27:02.753Z,0.56
2016-03-10T04:28:02.709Z,0.5
2016-03-10T04:29:02.681Z,0.44
2016-03-10T04:30:02.653Z,0.5
2016-03-10T04:31:02.624Z,0.37
2016-03-10T04:32:02.580Z,0.37
2016-03-10T04:33:02.614Z,0.44
2016-03-10T04:34:02.508Z,0.41
2016-03-10T04:35:02.478Z,0.46
2016-03-10T04:36:02.449Z,0.47
2016-03-10T04:37:02.405Z,0.47
2016-03-10T04:38:02.393Z,0.47
2016-03-10T04:39:02.349Z,0.47
2016-03-10T04:40:02.319Z,0.41
2016-03-10T04:41:02.276Z,0.4
2016-03-10T04:42:02.246Z,0.39
2016-03-10T04:43:02.202Z,0.37
2016-03-10T04:44:02.174Z,0.43
2016-03-10T04:45:02.146Z,0.37
2016-03-10T04:46:02.117Z,0.39
2016-03-10T04:47:02.088Z,0.4
2016-03-10T04:48:02.060Z,0.41
2016-03-10T04:49:02.016Z,0.43
2016-03-10T04:50:01.987Z,0.37
2016-03-10T04:51:01.943Z,0.37
2016-03-10T04:52:01.930Z,0.43
2016-03-10T04:53:01.887Z,0.36
2016-03-10T04:54:01.857Z,0.37
2016-03-10T04:55:01.829Z,0.37
2016-03-10T04:56:01.784Z,0.39
2016-03-10T04:57:01.756Z,0.39
2016-03-10T04:58:01.711Z,0.37
2016-03-10T04:59:01.700Z,0.37
2016-03-10T05:00:01.686Z,0.37
2016-03-10T05:01:01.626Z,0.37
2016-03-10T05:02:01.597Z,0.37
2016-03-10T05:03:01.553Z,0.39
2016-03-10T05:04:01.525Z,0.43
2016-03-10T05:05:01.496Z,0.36
2016-03-10T05:06:01.452Z,0.39
2016-03-10T05:07:01.439Z,0.44
2016-03-10T05:08:01.411Z,0.39
2016-03-10T05:09:01.366Z,0.44
2016-03-10T05:10:01.322Z,0.36
2016-03-10T05:11:01.294Z,0.32
2016-03-10T05:12:01.266Z,0.32
2016-03-10T05:13:01.222Z,0.31
2016-03-10T05:14:01.208Z,0.32
2016-03-10T05:15:01.164Z,0.34
2016-03-10T05:16:01.120Z,0.29
2016-03-10T05:17:01.091Z,0.28
2016-03-10T05:18:01.063Z,0.36
2016-03-10T05:19:01.034Z,0.37
2016-03-10T05:20:00.990Z,0.32
2016-03-10T05:21:00.962Z,0.32
2016-03-10T05:22:00.932Z,0.37
2016-03-10T05:23:00.889Z,0.29
2016-03-10T05:24:00.860Z,0.39
2016-03-10T05:25:00.831Z,0.32
2016-03-10T05:26:00.787Z,0.29
2016-03-10T05:27:00.759Z,0.37
2016-03-10T05:28:00.731Z,0.37
2016-03-10T05:29:00.701Z,0.28
2016-03-10T05:30:00.658Z,0.31
2016-03-10T05:31:00.629Z,0.25
2016-03-10T05:32:00.600Z,0.21
2016-03-10T05:33:00.572Z,0.31
2016-03-10T05:34:00.543Z,0.32
2016-03-10T05:35:00.499Z,0.32
2016-03-10T05:36:00.470Z,0.29
2016-03-10T05:37:00.441Z,0.25
2016-03-10T05:38:00.397Z,0.26
2016-03-10T05:39:00.369Z,0.25
2016-03-10T05:40:00.324Z,0.28
2016-03-10T05:41:00.296Z,0.18
2016-03-10T05:42:00.268Z,0.21
2016-03-10T05:43:00.239Z,0.26
2016-03-10T05:44:00.227Z,0.23
2016-03-10T05:45:00.166Z,0.28
2016-03-10T05:46:00.122Z,0.25
2016-03-10T05:47:00.110Z,0.25
2016-03-10T05:48:00.066Z,0.25
2016-03-10T05:49:00.037Z,0.25
2016-03-10T05:50:00.008Z,0.21
2016-03-10T05:50:59.965Z,0.23
2016-03-10T05:51:59.935Z,0.23
2016-03-10T05:52:59.907Z,0.23
2016-03-10T05:53:59.862Z,0.19
2016-03-10T05:54:59.850Z,0.29
2016-03-10T05:55:59.806Z,0.25
2016-03-10T05:56:59.776Z,0.26
2016-03-10T05:57:59.733Z,0.23
2016-03-10T05:58:59.704Z,0.22
2016-03-10T05:59:59.675Z,0.23
2016-03-10T06:00:59.662Z,0.23
2016-03-10T06:01:59.602Z,0.26
2016-03-10T06:02:59.574Z,0.29
2016-03-10T06:03:59.545Z,0.26
2016-03-10T06:04:59.502Z,0.31
2016-03-10T06:05:59.471Z,0.29
2016-03-10T06:06:59.442Z,0.19
2016-03-10T06:07:59.398Z,0.32
2016-03-10T06:08:59.370Z,0.32
2016-03-10T06:09:59.342Z,0.37
2016-03-10T06:10:59.312Z,0.22
2016-03-10T06:11:59.268Z,0.29
2016-03-10T06:12:59.239Z,0.31
2016-03-10T06:13:59.211Z,0.32
2016-03-10T06:14:59.183Z,0.4
2016-03-10T06:15:59.185Z,0.34
2016-03-10T06:16:59.344Z,0.34
2016-03-10T06:17:59.081Z,0.34
2016-03-10T06:18:59.038Z,0.36
2016-03-10T06:19:59.008Z,0.31
2016-03-10T06:20:58.980Z,0.37
2016-03-10T06:21:58.935Z,0.36
2016-03-10T06:22:58.907Z,0.34
2016-03-10T06:23:58.879Z,0.39
2016-03-10T06:24:58.850Z,0.4
2016-03-10T06:25:58.806Z,0.46
2016-03-10T06:26:58.777Z,0.43
2016-03-10T06:27:58.748Z,0.49
2016-03-10T06:28:58.720Z,0.39
2016-03-10T06:29:58.692Z,0.47
2016-03-10T06:30:58.648Z,0.44
2016-03-10T06:31:58.634Z,0.52
2016-03-10T06:32:58.576Z,0.47
2016-03-10T06:33:58.562Z,0.52
2016-03-10T06:34:58.518Z,0.47
2016-03-10T06:35:58.489Z,0.55
2016-03-10T06:36:58.461Z,0.59
2016-03-10T06:37:58.416Z,0.58
2016-03-10T06:38:58.404Z,0.62
2016-03-10T06:39:58.359Z,0.63
2016-03-10T06:40:58.331Z,0.62
2016-03-10T06:41:58.286Z,0.52
2016-03-10T06:42:58.258Z,0.63
2016-03-10T06:43:58.230Z,0.69
2016-03-10T06:44:58.201Z,0.66
2016-03-10T06:45:58.172Z,0.74
2016-03-10T06:46:58.128Z,0.73
2016-03-10T06:47:58.100Z,0.69
2016-03-10T06:48:58.072Z,0.73
2016-03-10T06:49:58.042Z,0.73
2016-03-10T06:50:57.998Z,0.66
2016-03-10T06:51:57.970Z,0.77
2016-03-10T06:52:57.941Z,0.8
2016-03-10T06:53:57.897Z,0.8
2016-03-10T06:54:57.868Z,0.77
2016-03-10T06:55:57.840Z,0.76
2016-03-10T06:56:57.795Z,0.78
2016-03-10T06:57:57.783Z,0.76
2016-03-10T06:58:57.738Z,0.91
2016-03-10T06:59:57.710Z,0.77
2016-03-10T07:00:57.682Z,0.73
2016-03-10T07:01:57.638Z,0.76
2016-03-10T07:02:57.624Z,0.78
2016-03-10T07:03:57.580Z,0.81
2016-03-10T07:04:57.567Z,0.91
2016-03-10T07:05:57.507Z,0.88
2016-03-10T07:06:57.479Z,0.87
2016-03-10T07:07:57.451Z,0.88
2016-03-10T07:08:57.422Z,0.96
2016-03-10T07:09:57.392Z,1.02
2016-03-10T07:10:57.364Z,1.01
2016-03-10T07:11:57.320Z,1.05
2016-03-10T07:12:57.292Z,1.04
2016-03-10T07:13:57.263Z,1.04
2016-03-10T07:14:57.235Z,1.1
2016-03-10T07:15:57.425Z,1.12
2016-03-10T07:16:57.381Z,1.2
2016-03-10T07:17:57.196Z,1.17
2016-03-10T07:18:57.261Z,1.2
2016-03-10T07:19:57.341Z,1.24
2016-03-10T07:20:57.283Z,1.22
2016-03-10T07:21:57.238Z,1.22
2016-03-10T07:22:57.163Z,1.31
2016-03-10T07:23:57.196Z,1.38
2016-03-10T07:24:56.915Z,1.42
2016-03-10T07:25:56.871Z,1.4
2016-03-10T07:26:56.858Z,1.45
2016-03-10T07:27:56.813Z,1.45
2016-03-10T07:28:56.785Z,1.52
2016-03-10T07:29:56.741Z,1.55
2016-03-10T07:30:56.729Z,1.6
2016-03-10T07:31:56.684Z,1.56
2016-03-10T07:32:56.655Z,1.55
2016-03-10T07:33:56.626Z,1.53
2016-03-10T07:34:56.583Z,1.6
2016-03-10T07:35:56.773Z,1.6
2016-03-10T07:36:56.526Z,1.58
2016-03-10T07:37:56.497Z,1.7
2016-03-10T07:38:56.468Z,1.76
2016-03-10T07:39:56.440Z,1.8
2016-03-10T07:40:56.395Z,1.84
2016-03-10T07:41:56.367Z,1.8
2016-03-10T07:42:56.354Z,1.84
2016-03-10T07:43:56.310Z,1.92
2016-03-10T07:44:56.281Z,1.87
2016-03-10T07:45:56.237Z,1.95
2016-03-10T07:46:56.225Z,2
2016-03-10T07:47:56.175Z,1.99
2016-03-10T07:48:56.170Z,2.1
2016-03-10T07:49:56.104Z,2.07
2016-03-10T07:50:56.069Z,2.13
2016-03-10T07:51:56.035Z,2.18
2016-03-10T07:52:56.018Z,2.15
2016-03-10T07:53:55.972Z,2.26
2016-03-10T07:54:55.925Z,2.25
2016-03-10T07:55:56.035Z,2.25
2016-03-10T07:56:55.880Z,2.29
2016-03-10T07:57:56.443Z,2.22
2016-03-10T07:58:55.852Z,2.36
2016-03-10T07:59:55.775Z,2.42
2016-03-10T08:00:55.746Z,2.33
2016-03-10T08:01:55.717Z,2.49
2016-03-10T08:02:55.672Z,2.43
2016-03-10T08:03:55.644Z,2.5
2016-03-10T08:04:55.614Z,2.42
2016-03-10T08:05:55.585Z,2.56
2016-03-10T08:06:55.557Z,2.5
2016-03-10T08:07:55.528Z,2.62
2016-03-10T08:08:55.498Z,2.67
2016-03-10T08:09:55.470Z,2.64
2016-03-10T08:10:55.442Z,2.68
2016-03-10T08:11:55.398Z,2.64
2016-03-10T08:12:55.369Z,2.68
2016-03-10T08:13:55.340Z,2.77
2016-03-10T08:14:55.327Z,2.77
2016-03-10T08:15:55.284Z,2.79
2016-03-10T08:16:55.255Z,2.83
2016-03-10T08:17:55.226Z,2.79
2016-03-10T08:18:55.183Z,2.87
2016-03-10T08:19:55.153Z,2.9
2016-03-10T08:20:55.125Z,2.86
2016-03-10T08:21:55.096Z,2.9
2016-03-10T08:22:55.069Z,2.87
2016-03-10T08:23:55.039Z,2.97
2016-03-10T08:24:55.011Z,2.93
2016-03-10T08:25:54.982Z,2.95
2016-03-10T08:26:54.954Z,2.93
2016-03-10T08:27:54.925Z,3.1
2016-03-10T08:28:54.927Z,3.07
2016-03-10T08:29:54.868Z,3.16
2016-03-10T08:30:54.824Z,3.14
2016-03-10T08:31:54.811Z,3.14
2016-03-10T08:32:54.766Z,3.26
2016-03-10T08:33:54.738Z,3.22
2016-03-10T08:34:54.726Z,3.29
2016-03-10T08:35:54.681Z,3.28
2016-03-10T08:36:54.652Z,3.29
2016-03-10T08:37:54.623Z,3.37
2016-03-10T08:38:54.596Z,3.31
2016-03-10T08:39:54.567Z,3.32
2016-03-10T08:40:54.523Z,3.4
2016-03-10T08:41:54.510Z,3.42
2016-03-10T08:42:54.465Z,3.47
2016-03-10T08:43:54.453Z,3.51
2016-03-10T08:44:54.409Z,3.58
2016-03-10T08:45:54.396Z,3.6
2016-03-10T08:46:54.351Z,3.56
2016-03-10T08:47:54.338Z,3.58
2016-03-10T08:48:54.294Z,3.62
2016-03-10T08:49:54.266Z,3.65
2016-03-10T08:50:54.236Z,3.77
2016-03-10T08:51:54.208Z,3.76
2016-03-10T08:52:54.180Z,3.8
2016-03-10T08:53:54.152Z,3.78
2016-03-10T08:54:54.123Z,3.77
2016-03-10T08:55:53.938Z,3.73
2016-03-10T08:56:54.066Z,3.76
2016-03-10T08:57:54.038Z,3.84
2016-03-10T08:58:54.008Z,3.87
2016-03-10T08:59:53.979Z,3.8
2016-03-10T09:00:53.951Z,3.91
2016-03-10T09:01:53.923Z,3.81
2016-03-10T09:02:53.894Z,3.88
2016-03-10T09:03:53.865Z,3.95
2016-03-10T09:04:53.885Z,3.91
2016-03-10T09:05:53.652Z,3.99
2016-03-10T09:06:53.776Z,3.92
2016-03-10T09:07:53.747Z,4.02
2016-03-10T09:08:53.719Z,4.06
2016-03-10T09:09:53.691Z,4.04
2016-03-10T09:10:53.661Z,4.1
2016-03-10T09:11:53.633Z,4.06
2016-03-10T09:12:53.605Z,4.06
2016-03-10T09:13:53.577Z,4.16
2016-03-10T09:14:53.532Z,4.24
2016-03-10T09:15:53.534Z,4.22
2016-03-10T09:16:53.475Z,4.28
2016-03-10T09:17:53.462Z,4.31
2016-03-10T09:18:53.449Z,4.28
2016-03-10T09:19:53.389Z,4.34
2016-03-10T09:20:53.376Z,4.44
2016-03-10T09:21:53.332Z,4.55
2016-03-10T09:22:53.303Z,4.55
2016-03-10T09:23:53.291Z,4.49
2016-03-10T09:24:53.246Z,4.55
2016-03-10T09:25:53.233Z,4.62
2016-03-10T09:26:53.204Z,4.82
2016-03-10T09:27:53.176Z,4.68
2016-03-10T09:28:53.148Z,4.8
2016-03-10T09:29:53.120Z,4.87
2016-03-10T09:30:53.091Z,4.82
2016-03-10T09:31:53.047Z,4.97
2016-03-10T09:32:53.033Z,4.93
2016-03-10T09:33:53.005Z,4.97
2016-03-10T09:34:52.961Z,5.02
2016-03-10T09:35:52.947Z,5.07
2016-03-10T09:36:52.919Z,5.02
2016-03-10T09:37:52.891Z,5.12
2016-03-10T09:38:52.862Z,5.21
2016-03-10T09:39:52.833Z,5.26
2016-03-10T09:40:52.806Z,5.3
2016-03-10T09:41:52.777Z,5.33
2016-03-10T09:42:52.748Z,5.26
2016-03-10T09:43:52.704Z,5.43
2016-03-10T09:44:52.691Z,5.39
2016-03-10T09:45:52.663Z,5.5
2016-03-10T09:46:52.633Z,5.48
2016-03-10T09:47:52.605Z,5.47
2016-03-10T09:48:52.577Z,5.51
2016-03-10T09:49:52.548Z,5.48
2016-03-10T09:50:52.524Z,5.57
2016-03-10T09:51:52.496Z,5.54
2016-03-10T09:52:52.468Z,5.59
2016-03-10T09:53:52.501Z,5.71
2016-03-10T09:54:52.409Z,5.66
2016-03-10T09:55:52.429Z,5.68
2016-03-10T09:56:52.353Z,5.71
2016-03-10T09:57:52.325Z,5.71
2016-03-10T09:58:52.296Z,5.72
2016-03-10T09:59:52.268Z,5.82
2016-03-10T10:00:52.286Z,5.87
2016-03-10T10:01:52.256Z,5.89
2016-03-10T10:02:52.214Z,5.93
2016-03-10T10:03:52.169Z,6.07
2016-03-10T10:04:52.140Z,5.98
2016-03-10T10:05:52.111Z,5.99
2016-03-10T10:06:52.083Z,6.08
2016-03-10T10:07:52.305Z,6.01
2016-03-10T10:08:52.041Z,6.11
2016-03-10T10:09:52.013Z,6.14
2016-03-10T10:10:51.969Z,6.16
2016-03-10T10:11:51.955Z,6.24
2016-03-10T10:12:51.911Z,6.28
2016-03-10T10:13:51.883Z,6.27
2016-03-10T10:14:51.870Z,6.3
2016-03-10T10:15:51.841Z,6.3
2016-03-10T10:16:51.812Z,6.3
2016-03-10T10:17:51.816Z,6.35
2016-03-10T10:18:51.756Z,6.28
2016-03-10T10:19:51.727Z,6.41
2016-03-10T10:20:51.715Z,6.44
2016-03-10T10:21:51.670Z,6.42
2016-03-10T10:22:51.657Z,6.49
2016-03-10T10:23:51.629Z,6.48
2016-03-10T10:24:51.601Z,6.46
2016-03-10T10:25:51.587Z,6.51
2016-03-10T10:26:51.542Z,6.48
2016-03-10T10:27:51.514Z,6.63
2016-03-10T10:28:51.533Z,6.62
2016-03-10T10:29:51.457Z,6.7
2016-03-10T10:30:51.445Z,6.72
2016-03-10T10:31:51.447Z,6.74
2016-03-10T10:32:51.387Z,6.78
2016-03-10T10:33:51.422Z,6.81
2016-03-10T10:34:51.330Z,6.89
2016-03-10T10:35:51.317Z,6.93
2016-03-10T10:36:51.273Z,6.92
2016-03-10T10:37:51.244Z,6.89
2016-03-10T10:38:51.231Z,6.97
2016-03-10T10:39:51.203Z,6.95
2016-03-10T10:40:51.174Z,6.81
2016-03-10T10:41:51.146Z,6.92
2016-03-10T10:42:51.117Z,6.89
2016-03-10T10:43:51.104Z,6.92
2016-03-10T10:44:51.060Z,6.95
2016-03-10T10:45:51.047Z,6.99
2016-03-10T10:46:51.018Z,7.06
2016-03-10T10:47:50.991Z,6.89
2016-03-10T10:48:50.962Z,6.97
2016-03-10T10:49:50.933Z,7.06
2016-03-10T10:50:50.951Z,7.13
2016-03-10T10:51:50.891Z,7.14
2016-03-10T10:52:50.863Z,7.13
2016-03-10T10:53:50.834Z,7.2
2016-03-10T10:54:50.806Z,7.15
2016-03-10T10:55:50.793Z,7.1
2016-03-10T10:56:50.765Z,7.17
2016-03-10T10:57:50.736Z,7.21
2016-03-10T10:58:50.707Z,7.32
2016-03-10T10:59:50.678Z,7.31
2016-03-10T11:00:50.665Z,7.32
2016-03-10T11:01:50.622Z,7.39
2016-03-10T11:02:50.765Z,7.4
2016-03-10T11:03:50.581Z,7.48
2016-03-10T11:04:50.551Z,7.48
2016-03-10T11:05:50.539Z,7.48
2016-03-10T11:06:50.494Z,7.58
2016-03-10T11:07:50.481Z,7.63
2016-03-10T11:08:50.452Z,7.72
2016-03-10T11:09:50.425Z,7.75
2016-03-10T11:10:50.396Z,7.76
2016-03-10T11:11:50.382Z,7.79
2016-03-10T11:12:50.354Z,7.85
2016-03-10T11:13:50.325Z,7.8
2016-03-10T11:14:50.297Z,7.8
2016-03-10T11:15:50.269Z,7.8
2016-03-10T11:16:50.240Z,7.8
2016-03-10T11:17:50.227Z,7.94
2016-03-10T11:18:50.183Z,7.91
2016-03-10T11:19:50.170Z,7.95
2016-03-10T11:20:50.141Z,7.95
2016-03-10T11:21:50.112Z,8.05
2016-03-10T11:22:50.084Z,8.13
2016-03-10T11:23:50.071Z,8.01
2016-03-10T11:24:50.043Z,8.01
2016-03-10T11:25:50.014Z,8.08
2016-03-10T11:26:49.985Z,8.1
2016-03-10T11:27:49.988Z,8.03
2016-03-10T11:28:49.945Z,8.2
2016-03-10T11:29:49.915Z,8.16
2016-03-10T11:30:49.887Z,8.26
2016-03-10T11:31:49.859Z,8.28
2016-03-10T11:32:49.830Z,8.33
2016-03-10T11:33:49.817Z,8.37
2016-03-10T11:34:49.804Z,8.42
2016-03-10T11:35:49.775Z,8.49
2016-03-10T11:36:49.747Z,8.53
2016-03-10T11:37:49.719Z,8.61
2016-03-10T11:38:49.690Z,8.6
2016-03-10T11:39:49.661Z,8.6
2016-03-10T11:40:49.633Z,8.53
2016-03-10T11:41:49.619Z,8.58
2016-03-10T11:42:49.591Z,8.46
2016-03-10T11:43:49.563Z,8.48
2016-03-10T11:44:49.549Z,8.49
2016-03-10T11:45:49.552Z,8.49
2016-03-10T11:46:49.508Z,8.52
2016-03-10T11:47:49.479Z,8.55
2016-03-10T11:48:49.451Z,8.66
2016-03-10T11:49:49.422Z,8.61
2016-03-10T11:50:49.410Z,8.69
2016-03-10T11:51:49.381Z,8.71
2016-03-10T11:52:49.352Z,8.71
2016-03-10T11:53:49.324Z,8.81
2016-03-10T11:54:49.311Z,8.81
2016-03-10T11:55:49.267Z,8.85
2016-03-10T11:56:49.332Z,8.87
2016-03-10T11:57:49.226Z,8.97
2016-03-10T11:58:49.197Z,9.02
2016-03-10T11:59:49.184Z,8.92
2016-03-10T12:00:49.171Z,8.95
2016-03-10T12:01:49.127Z,8.88
2016-03-10T12:02:49.114Z,8.94
2016-03-10T12:03:49.085Z,8.97
2016-03-10T12:04:49.056Z,8.94
2016-03-10T12:05:49.029Z,8.94
2016-03-10T12:06:48.999Z,8.99
2016-03-10T12:07:48.987Z,9.03
2016-03-10T12:08:48.974Z,9.04
2016-03-10T12:09:48.944Z,9.06
2016-03-10T12:10:48.917Z,9.08
2016-03-10T12:11:48.903Z,9.13
2016-03-10T12:12:48.858Z,9.14
2016-03-10T12:13:48.846Z,9.19
2016-03-10T12:14:48.833Z,9.14
2016-03-10T12:15:48.789Z,9.32
2016-03-10T12:16:48.760Z,9.36
2016-03-10T12:17:48.764Z,9.28
2016-03-10T12:18:48.719Z,9.32
2016-03-10T12:19:48.707Z,9.44
2016-03-10T12:20:48.678Z,9.44
2016-03-10T12:21:48.649Z,9.44
2016-03-10T12:22:48.636Z,9.58
2016-03-10T12:23:48.608Z,9.61
2016-03-10T12:24:48.579Z,9.56
2016-03-10T12:25:48.551Z,9.56
2016-03-10T12:26:48.522Z,9.58
2016-03-10T12:27:48.509Z,9.59
2016-03-10T12:28:48.481Z,9.65
2016-03-10T12:29:48.452Z,9.72
2016-03-10T12:30:48.440Z,9.76
2016-03-10T12:31:48.426Z,9.68
2016-03-10T12:32:48.382Z,9.65
2016-03-10T12:33:48.370Z,9.65
2016-03-10T12:34:48.340Z,9.73
2016-03-10T12:35:48.328Z,9.8
2016-03-10T12:36:48.299Z,9.79
2016-03-10T12:37:48.270Z,9.8
2016-03-10T12:38:48.242Z,9.89
2016-03-10T12:39:48.229Z,9.89
2016-03-10T12:40:48.217Z,9.91
2016-03-10T12:41:48.172Z,9.92
2016-03-10T12:42:48.159Z,9.92
2016-03-10T12:43:48.131Z,9.94
2016-03-10T12:44:48.102Z,9.97
2016-03-10T12:45:48.089Z,9.99
2016-03-10T12:46:48.061Z,9.97
2016-03-10T12:47:48.032Z,10.1
2016-03-10T12:48:48.019Z,10.07
2016-03-10T12:49:48.005Z,10.16
2016-03-10T12:50:47.961Z,10.05
2016-03-10T12:51:47.949Z,10.13
2016-03-10T12:52:47.936Z,10.16
2016-03-10T12:53:47.892Z,10.2
2016-03-10T12:54:47.879Z,10.1
2016-03-10T12:55:47.866Z,10.05
2016-03-10T12:56:47.837Z,10.13
2016-03-10T12:57:47.809Z,9.99
2016-03-10T12:58:47.779Z,10.12
2016-03-10T12:59:47.767Z,10.01
2016-03-10T13:00:47.738Z,10.02
2016-03-10T13:01:47.726Z,10.02
2016-03-10T13:02:47.698Z,10.02
2016-03-10T13:03:47.669Z,10.01
2016-03-10T13:04:47.640Z,9.97
2016-03-10T13:05:47.627Z,9.98
2016-03-10T13:06:47.614Z,9.97
2016-03-10T13:07:47.586Z,9.94
2016-03-10T13:08:47.573Z,9.92
2016-03-10T13:09:47.529Z,10.04
2016-03-10T13:10:47.515Z,10.01
2016-03-10T13:11:47.487Z,10.12
2016-03-10T13:12:47.458Z,10.01
2016-03-10T13:13:47.452Z,10.09
2016-03-10T13:14:47.424Z,10.05
2016-03-10T13:15:47.396Z,10.17
2016-03-10T13:16:47.367Z,10.09
2016-03-10T13:17:47.354Z,10.2
2016-03-10T13:18:47.325Z,10.22
2016-03-10T13:19:47.313Z,10.28